Time;durP1;ratioP1;P1;durP2;ratioP2;P2;SDS_P1;SDS_P2;PMS_P1;PMS_P2;Temp;Humidity;BMP_temperature;BMP_pressure;BME280_temperature;BME280_humidity;BME280_pressure;Samples;Min_cycle;Max_cycle;Signal;HPM_P1;HPM_P2
2023/11/25 00:00:54;;;;;;;9.05;6.80;;;6.20;68.50;;;;;;5003154;28;21138;-80
2023/11/25 00:03:20;;;;;;;10.07;7.72;;;6.20;68.50;;;;;;5000380;28;20093;-84
2023/11/25 00:05:46;;;;;;;10.00;7.22;;;6.20;68.50;;;;;;5000179;28;20477;-85
2023/11/25 00:08:12;;;;;;;11.55;7.80;;;6.20;68.50;;;;;;4983181;28;20054;-85
2023/11/25 00:10:38;;;;;;;10.65;7.30;;;6.20;68.50;;;;;;5003808;28;20128;-85
2023/11/25 00:13:05;;;;;;;12.70;7.70;;;6.20;68.50;;;;;;5005152;28;20034;-88
2023/11/25 00:15:32;;;;;;;11.88;8.18;;;6.20;68.40;;;;;;5004044;28;20412;-84
2023/11/25 00:17:58;;;;;;;9.73;7.03;;;6.20;68.50;;;;;;5001472;28;20038;-84
2023/11/25 00:20:25;;;;;;;10.02;7.32;;;6.20;68.30;;;;;;5004259;28;20030;-86
2023/11/25 00:22:52;;;;;;;10.45;7.18;;;6.10;68.30;;;;;;5002663;28;20492;-86
2023/11/25 00:25:19;;;;;;;10.07;7.40;;;6.10;68.30;;;;;;4962175;28;20041;-85
2023/11/25 00:27:49;;;;;;;11.13;7.72;;;6.10;68.20;;;;;;5004945;28;20042;-86
2023/11/25 00:30:15;;;;;;;11.18;7.40;;;6.10;68.30;;;;;;5002000;28;20393;-82
2023/11/25 00:32:41;;;;;;;11.68;7.55;;;6.10;68.40;;;;;;5002689;28;20077;-85
2023/11/25 00:35:08;;;;;;;9.70;7.22;;;6.10;68.50;;;;;;4990170;28;20492;-85
2023/11/25 00:37:35;;;;;;;10.38;7.28;;;6.10;68.60;;;;;;4968918;28;20160;-80
2023/11/25 00:40:16;;;;;;;9.55;7.43;;;6.10;68.50;;;;;;5004224;28;20042;-84
2023/11/25 00:42:42;;;;;;;11.25;7.63;;;6.10;68.50;;;;;;5003957;28;20046;-85
2023/11/25 00:45:14;;;;;;;9.63;7.15;;;6.10;68.40;;;;;;5003873;28;20299;-81
2023/11/25 00:47:41;;;;;;;9.57;6.78;;;6.10;68.30;;;;;;4970743;28;20038;-85
2023/11/25 00:50:11;;;;;;;9.77;7.32;;;6.10;68.40;;;;;;5003503;28;20041;-84
2023/11/25 00:52:37;;;;;;;10.80;7.13;;;6.10;68.40;;;;;;4990230;28;20087;-86
2023/11/25 00:55:05;;;;;;;11.45;7.88;;;6.10;68.40;;;;;;4986514;28;20045;-86
2023/11/25 00:57:31;;;;;;;9.02;6.63;;;6.10;68.20;;;;;;5001731;28;20520;-85
2023/11/25 00:59:58;;;;;;;10.68;7.13;;;6.00;68.30;;;;;;5005183;28;20493;-85
2023/11/25 01:02:24;;;;;;;12.15;7.68;;;6.10;68.30;;;;;;4988277;28;20120;-87
2023/11/25 01:04:50;;;;;;;10.10;7.13;;;6.10;68.50;;;;;;5008394;28;20060;-80
2023/11/25 01:07:18;;;;;;;10.00;6.75;;;6.10;68.30;;;;;;5004332;28;20121;-84
2023/11/25 01:09:44;;;;;;;11.23;7.60;;;6.00;68.40;;;;;;4986451;28;20492;-87
2023/11/25 01:12:10;;;;;;;9.93;7.35;;;6.00;68.30;;;;;;5003068;28;20975;-87
2023/11/25 01:14:36;;;;;;;8.35;6.43;;;6.00;68.60;;;;;;4986128;28;20497;-86
2023/11/25 01:17:03;;;;;;;10.88;7.43;;;6.00;68.40;;;;;;4990727;28;20037;-88
2023/11/25 01:19:29;;;;;;;9.70;6.90;;;6.00;68.30;;;;;;5003221;28;20039;-80
2023/11/25 01:21:55;;;;;;;9.27;6.85;;;6.00;68.40;;;;;;5002174;28;20686;-88
2023/11/25 01:24:22;;;;;;;9.57;7.03;;;6.00;68.30;;;;;;4968351;28;20053;-86
2023/11/25 01:26:48;;;;;;;9.45;6.50;;;6.00;68.40;;;;;;4986208;28;20042;-88
2023/11/25 01:29:14;;;;;;;11.43;7.10;;;6.00;68.10;;;;;;4976265;28;20184;-86
2023/11/25 01:31:40;;;;;;;11.23;7.28;;;6.00;68.20;;;;;;5001501;28;20035;-89
2023/11/25 01:34:06;;;;;;;9.80;6.95;;;6.00;68.20;;;;;;4986628;28;20036;-87
2023/11/25 01:36:32;;;;;;;9.43;6.80;;;6.00;68.10;;;;;;4984798;28;20611;-84
2023/11/25 01:38:58;;;;;;;10.43;6.72;;;6.00;68.10;;;;;;4988635;28;20128;-84
2023/11/25 01:41:24;;;;;;;11.40;7.00;;;6.00;68.10;;;;;;4983317;28;20211;-84
2023/11/25 01:43:50;;;;;;;17.90;6.95;;;6.00;68.50;;;;;;4981381;28;20034;-83
2023/11/25 01:46:36;;;;;;;10.98;7.60;;;6.00;67.80;;;;;;4989010;28;20723;-83
2023/11/25 01:49:04;;;;;;;10.13;6.55;;;6.00;67.90;;;;;;4998854;28;20148;-83
2023/11/25 01:51:31;;;;;;;10.15;6.75;;;6.00;67.70;;;;;;4999349;28;20125;-82
2023/11/25 01:53:59;;;;;;;11.27;7.50;;;6.00;67.80;;;;;;5000260;28;20487;-86
2023/11/25 01:56:28;;;;;;;10.27;7.10;;;6.00;67.70;;;;;;4987435;28;20038;-85
2023/11/25 01:58:56;;;;;;;9.90;6.88;;;6.00;67.70;;;;;;4969571;28;20037;-86
2023/11/25 02:01:24;;;;;;;8.95;6.43;;;5.90;67.70;;;;;;4985492;28;20527;-85
2023/11/25 02:03:50;;;;;;;9.13;6.72;;;5.90;67.60;;;;;;4997940;28;20034;-83
2023/11/25 02:06:16;;;;;;;9.75;6.88;;;5.90;67.60;;;;;;4990473;28;20084;-85
2023/11/25 02:08:46;;;;;;;11.80;7.30;;;5.90;67.50;;;;;;4986403;28;20531;-84
2023/11/25 02:11:12;;;;;;;11.15;7.57;;;5.90;67.50;;;;;;4982525;28;20046;-86
2023/11/25 02:13:38;;;;;;;10.60;7.20;;;5.90;67.50;;;;;;4988432;28;20048;-87
2023/11/25 02:16:04;;;;;;;11.75;7.38;;;5.90;67.70;;;;;;4999189;28;20038;-86
2023/11/25 02:18:30;;;;;;;12.93;8.48;;;5.90;67.60;;;;;;4983170;28;20137;-80
2023/11/25 02:20:56;;;;;;;11.95;7.93;;;5.90;67.60;;;;;;4984470;28;20034;-88
2023/11/25 02:23:22;;;;;;;12.73;8.35;;;5.90;67.50;;;;;;4984160;28;20042;-86
2023/11/25 02:25:50;;;;;;;12.02;8.32;;;5.90;67.50;;;;;;5002077;28;20040;-83
2023/11/25 02:28:20;;;;;;;10.85;7.68;;;5.90;67.50;;;;;;5012567;28;20038;-87
2023/11/25 02:30:49;;;;;;;11.32;8.27;;;5.90;67.40;;;;;;5002120;28;20041;-87
2023/11/25 02:33:16;;;;;;;11.13;8.25;;;5.90;67.30;;;;;;4984242;28;20041;-83
2023/11/25 02:35:43;;;;;;;10.63;7.70;;;5.90;67.20;;;;;;4999161;28;20499;-84
2023/11/25 02:38:13;;;;;;;11.32;8.07;;;5.90;67.20;;;;;;4982302;28;20148;-83
2023/11/25 02:40:41;;;;;;;13.15;8.27;;;5.90;67.20;;;;;;5000905;28;20036;-83
2023/11/25 02:43:07;;;;;;;11.13;7.80;;;5.90;67.30;;;;;;5000557;28;20034;-88
2023/11/25 02:45:34;;;;;;;9.88;7.47;;;5.90;67.50;;;;;;5001499;28;20038;-84
2023/11/25 02:48:00;;;;;;;9.80;7.45;;;5.90;67.40;;;;;;4983911;28;20049;-86
2023/11/25 02:50:27;;;;;;;12.05;8.18;;;5.90;68.10;;;;;;4983402;28;20125;-83
2023/11/25 02:52:54;;;;;;;8.52;6.80;;;5.80;67.50;;;;;;5000709;28;20045;-81
2023/11/25 02:55:20;;;;;;;9.48;7.25;;;5.80;67.40;;;;;;5000382;28;20605;-87
2023/11/25 02:57:46;;;;;;;10.63;7.30;;;5.80;67.50;;;;;;4982987;28;20188;-87
2023/11/25 03:00:28;;;;;;;10.27;7.70;;;5.90;67.60;;;;;;5001347;28;20042;-88
2023/11/25 03:03:12;;;;;;;9.38;6.72;;;5.80;67.30;;;;;;5002443;28;20505;-87
2023/11/25 03:05:42;;;;;;;11.30;7.90;;;5.80;67.30;;;;;;4966866;28;20033;-87
2023/11/25 03:08:16;;;;;;;12.80;7.97;;;5.80;67.50;;;;;;4984057;28;20137;-87
2023/11/25 03:10:43;;;;;;;8.80;7.07;;;5.80;67.50;;;;;;4982120;28;20030;-87
2023/11/25 03:13:10;;;;;;;11.40;7.53;;;5.80;67.70;;;;;;4983391;28;20886;-88
2023/11/25 03:15:37;;;;;;;9.75;7.00;;;5.80;67.60;;;;;;4999841;28;20037;-88
2023/11/25 03:18:05;;;;;;;10.40;6.93;;;5.80;67.60;;;;;;4998966;28;20472;-86
2023/11/25 03:20:35;;;;;;;9.93;6.93;;;5.80;67.60;;;;;;4999210;28;20505;-85
2023/11/25 03:23:06;;;;;;;7.95;6.07;;;5.80;67.50;;;;;;5001769;28;20076;-88
2023/11/25 03:25:32;;;;;;;9.20;6.40;;;5.80;67.50;;;;;;4950723;28;20022;-85
2023/11/25 03:28:04;;;;;;;9.77;6.38;;;5.80;67.50;;;;;;5001300;28;20441;-85
2023/11/25 03:30:30;;;;;;;8.85;6.72;;;5.80;67.40;;;;;;4997828;28;20038;-80
2023/11/25 03:32:56;;;;;;;10.05;6.40;;;5.80;67.40;;;;;;4968867;28;20046;-86
2023/11/25 03:35:25;;;;;;;11.98;6.95;;;5.80;67.30;;;;;;5000401;28;20034;-86
2023/11/25 03:37:52;;;;;;;8.77;6.38;;;5.80;67.30;;;;;;4996827;28;20034;-84
2023/11/25 03:40:18;;;;;;;9.15;6.07;;;5.80;67.30;;;;;;4983021;28;20030;-81
2023/11/25 03:42:44;;;;;;;9.13;6.63;;;5.80;67.30;;;;;;4982457;28;20041;-86
2023/11/25 03:45:13;;;;;;;9.88;6.95;;;5.80;67.10;;;;;;5003260;28;20960;-82
2023/11/25 03:47:46;;;;;;;8.38;5.88;;;5.80;67.30;;;;;;5004219;28;20046;-85
2023/11/25 03:50:12;;;;;;;8.25;6.15;;;5.80;67.30;;;;;;4990677;28;20050;-84
2023/11/25 03:52:40;;;;;;;9.60;6.60;;;5.80;67.40;;;;;;5005649;28;20408;-85
2023/11/25 03:55:09;;;;;;;8.00;6.03;;;5.80;67.50;;;;;;4991035;28;20045;-85
2023/11/25 03:57:37;;;;;;;9.38;6.40;;;5.80;67.40;;;;;;4991732;28;20057;-85
2023/11/25 04:00:14;;;;;;;10.52;7.10;;;5.80;67.30;;;;;;4980590;28;20041;-85
2023/11/25 04:02:41;;;;;;;9.20;6.78;;;5.80;67.10;;;;;;5008310;28;20037;-86
2023/11/25 04:05:07;;;;;;;8.05;6.60;;;5.80;67.30;;;;;;5009958;28;20033;-86
2023/11/25 04:07:33;;;;;;;9.88;7.05;;;5.80;67.20;;;;;;4990741;28;20578;-81
2023/11/25 04:10:06;;;;;;;9.48;6.68;;;5.80;67.30;;;;;;4986529;28;20073;-83
2023/11/25 04:12:33;;;;;;;8.38;6.25;;;5.80;67.40;;;;;;5002970;28;20053;-86
2023/11/25 04:14:59;;;;;;;10.35;6.32;;;5.80;67.20;;;;;;5001746;28;20129;-86
2023/11/25 04:17:25;;;;;;;9.45;6.90;;;5.70;67.10;;;;;;5004180;28;20102;-82
2023/11/25 04:19:51;;;;;;;7.95;6.13;;;5.80;67.10;;;;;;4986611;28;20568;-82
2023/11/25 04:22:17;;;;;;;8.63;5.53;;;5.70;67.00;;;;;;5004684;28;20026;-83
2023/11/25 04:24:45;;;;;;;7.50;5.60;;;5.70;67.00;;;;;;4988170;28;20074;-87
2023/11/25 04:27:11;;;;;;;9.02;6.07;;;5.70;67.00;;;;;;4984577;28;20057;-85
2023/11/25 04:29:42;;;;;;;8.02;5.93;;;5.70;67.00;;;;;;4992012;28;20053;-83
2023/11/25 04:32:09;;;;;;;8.70;5.57;;;5.70;67.10;;;;;;4990858;28;20033;-86
2023/11/25 04:34:35;;;;;;;9.77;6.60;;;5.70;67.70;;;;;;5006534;28;20034;-83
2023/11/25 04:37:01;;;;;;;7.85;5.53;;;5.70;67.10;;;;;;5010104;28;20065;-86
2023/11/25 04:39:27;;;;;;;9.35;6.22;;;5.70;67.10;;;;;;5003631;28;20112;-86
2023/11/25 04:41:53;;;;;;;8.88;5.85;;;5.70;67.00;;;;;;5004279;28;20034;-87
2023/11/25 04:44:19;;;;;;;8.57;5.60;;;5.70;67.30;;;;;;5005980;28;20034;-84
2023/11/25 04:46:47;;;;;;;8.18;5.10;;;5.70;67.30;;;;;;4994911;28;20600;-86
2023/11/25 04:49:13;;;;;;;9.63;5.60;;;5.70;67.10;;;;;;5003466;28;20432;-81
2023/11/25 04:51:39;;;;;;;8.65;5.63;;;5.70;67.10;;;;;;5006132;28;20158;-85
2023/11/25 04:54:06;;;;;;;7.25;5.20;;;5.70;67.20;;;;;;5002777;28;20520;-85
2023/11/25 04:56:32;;;;;;;8.35;6.05;;;5.70;67.20;;;;;;5002846;28;20049;-86
2023/11/25 04:58:58;;;;;;;8.13;5.20;;;5.70;67.30;;;;;;4987375;28;20030;-83
2023/11/25 05:01:25;;;;;;;7.78;5.60;;;5.70;67.10;;;;;;5002527;28;20062;-86
2023/11/25 05:03:51;;;;;;;10.65;6.00;;;5.70;67.30;;;;;;4984384;28;20473;-83
2023/11/25 05:06:18;;;;;;;9.18;5.32;;;5.70;67.30;;;;;;5003313;28;20121;-85
2023/11/25 05:08:45;;;;;;;8.30;5.55;;;5.70;67.10;;;;;;5002874;28;20048;-87
2023/11/25 05:11:11;;;;;;;8.73;5.15;;;5.70;67.20;;;;;;5001569;28;20037;-85
2023/11/25 05:13:37;;;;;;;6.70;5.22;;;5.70;67.30;;;;;;5009589;28;20030;-82
2023/11/25 05:16:04;;;;;;;7.13;4.97;;;5.70;67.20;;;;;;5002218;28;20034;-84
2023/11/25 05:18:31;;;;;;;8.02;5.43;;;5.70;67.30;;;;;;5002996;28;20122;-79
2023/11/25 05:20:57;;;;;;;7.00;5.25;;;5.70;67.30;;;;;;5002094;28;20129;-85
2023/11/25 05:23:23;;;;;;;8.55;5.60;;;5.70;67.10;;;;;;4969883;28;20120;-84
2023/11/25 05:25:50;;;;;;;8.13;5.60;;;5.70;67.30;;;;;;5003142;28;20049;-83
2023/11/25 05:28:16;;;;;;;7.60;5.20;;;5.70;67.40;;;;;;5002669;28;20048;-86
2023/11/25 05:30:42;;;;;;;8.45;5.32;;;5.70;67.50;;;;;;4981522;28;20038;-86
2023/11/25 05:33:08;;;;;;;7.15;5.25;;;5.70;67.60;;;;;;4999134;28;20127;-84
2023/11/25 05:35:34;;;;;;;8.45;5.63;;;5.70;67.60;;;;;;5001014;28;20038;-85
2023/11/25 05:38:00;;;;;;;8.70;6.28;;;5.70;67.50;;;;;;4985383;28;20038;-84
2023/11/25 05:40:29;;;;;;;7.90;5.40;;;5.70;67.60;;;;;;4993516;28;20500;-84
2023/11/25 05:42:57;;;;;;;7.25;5.18;;;5.70;67.70;;;;;;5010689;28;20034;-85
2023/11/25 05:45:27;;;;;;;8.90;5.47;;;5.70;67.60;;;;;;5000863;28;20501;-82
2023/11/25 05:47:53;;;;;;;8.40;5.45;;;5.70;67.90;;;;;;5002864;28;20073;-87
2023/11/25 05:50:20;;;;;;;7.13;4.82;;;5.70;67.70;;;;;;4986563;28;20041;-90
2023/11/25 05:52:47;;;;;;;8.15;5.05;;;5.70;67.70;;;;;;4971798;28;20040;-85
2023/11/25 05:55:15;;;;;;;7.85;4.38;;;5.70;68.20;;;;;;4969670;28;21114;-88
2023/11/25 05:57:44;;;;;;;7.53;4.85;;;5.80;69.20;;;;;;4985890;28;20065;-87
2023/11/25 06:00:12;;;;;;;7.18;4.75;;;5.80;70.10;;;;;;4984866;28;20825;-83
2023/11/25 06:02:39;;;;;;;6.78;5.18;;;5.80;70.70;;;;;;4983591;28;20030;-87
2023/11/25 06:05:06;;;;;;;8.60;4.97;;;5.80;71.00;;;;;;4985805;28;20033;-85
2023/11/25 06:07:32;;;;;;;6.55;4.75;;;5.90;71.40;;;;;;4981452;28;20097;-88
2023/11/25 06:09:58;;;;;;;7.68;4.80;;;5.90;71.80;;;;;;4986997;28;20026;-90
2023/11/25 06:12:25;;;;;;;9.35;5.18;;;5.80;72.10;;;;;;4953536;28;20037;-89
2023/11/25 06:14:55;;;;;;;7.88;4.43;;;5.90;72.70;;;;;;4985629;28;20091;-89
2023/11/25 06:17:23;;;;;;;8.13;4.50;;;5.90;73.50;;;;;;4964580;28;20046;-83
2023/11/25 06:19:51;;;;;;;7.10;4.90;;;5.90;74.00;;;;;;4983774;28;20121;-87
2023/11/25 06:22:19;;;;;;;12.18;5.82;;;5.90;74.50;;;;;;4944850;28;20187;-83
2023/11/25 06:24:46;;;;;;;8.00;5.05;;;6.00;75.20;;;;;;4989858;28;20041;-84
2023/11/25 06:27:13;;;;;;;7.88;4.95;;;6.00;75.20;;;;;;4988541;28;20076;-86
2023/11/25 06:29:43;;;;;;;15.32;6.35;;;6.00;75.80;;;;;;4984740;28;20057;-85
2023/11/25 06:32:09;;;;;;;9.60;5.05;;;6.10;76.10;;;;;;4946907;28;20029;-84
2023/11/25 06:34:35;;;;;;;8.80;5.22;;;6.10;76.10;;;;;;4989257;28;20042;-84
2023/11/25 06:37:02;;;;;;;8.50;4.80;;;6.10;76.60;;;;;;4980432;28;20045;-77
2023/11/25 06:39:31;;;;;;;12.07;5.57;;;6.10;76.60;;;;;;4977297;28;20393;-83
2023/11/25 06:41:59;;;;;;;9.65;5.03;;;6.10;76.70;;;;;;4986404;28;20038;-81
2023/11/25 06:44:34;;;;;;;8.88;5.15;;;6.10;76.60;;;;;;4986084;28;20053;-82
2023/11/25 06:47:00;;;;;;;9.23;5.45;;;6.10;76.80;;;;;;4954447;28;20039;-79
2023/11/25 06:49:26;;;;;;;11.00;5.22;;;6.20;76.90;;;;;;4950024;28;20029;-77
2023/11/25 06:51:52;;;;;;;12.90;5.78;;;6.20;77.00;;;;;;4974430;28;20038;-78
2023/11/25 06:54:18;;;;;;;10.27;5.80;;;6.20;77.30;;;;;;4982570;28;20026;-78
2023/11/25 06:56:44;;;;;;;11.93;6.43;;;6.30;78.00;;;;;;4966647;28;20128;-78
2023/11/25 06:59:10;;;;;;;10.48;6.15;;;6.20;78.70;;;;;;4964910;28;20053;-77
2023/11/25 07:01:37;;;;;;;9.77;6.25;;;6.30;78.90;;;;;;4965587;28;20125;-77
2023/11/25 07:04:06;;;;;;;15.13;6.07;;;6.30;78.60;;;;;;4965507;28;20176;-78
2023/11/25 07:06:32;;;;;;;10.23;6.10;;;6.30;78.50;;;;;;4953903;28;20119;-77
2023/11/25 07:09:00;;;;;;;12.23;5.80;;;6.30;78.10;;;;;;4982623;28;20066;-78
2023/11/25 07:11:30;;;;;;;12.73;5.93;;;6.30;77.90;;;;;;4965502;28;20034;-78
2023/11/25 07:13:57;;;;;;;9.98;6.13;;;6.30;78.10;;;;;;4998975;28;20041;-78
2023/11/25 07:16:23;;;;;;;9.43;5.95;;;6.40;78.20;;;;;;4966005;28;20041;-78
2023/11/25 07:18:49;;;;;;;10.70;6.10;;;6.40;77.80;;;;;;5001380;28;20030;-78
2023/11/25 07:21:15;;;;;;;9.07;6.05;;;6.40;77.80;;;;;;4982280;28;20045;-78
2023/11/25 07:23:44;;;;;;;11.98;6.18;;;6.40;77.60;;;;;;5001661;28;20035;-78
2023/11/25 07:26:12;;;;;;;9.52;6.03;;;6.40;77.70;;;;;;4981558;28;20050;-78
2023/11/25 07:28:39;;;;;;;8.07;5.50;;;6.40;77.40;;;;;;4982884;28;20057;-78
2023/11/25 07:31:07;;;;;;;9.55;5.63;;;6.50;77.40;;;;;;4999677;28;20373;-79
2023/11/25 07:33:33;;;;;;;9.23;5.43;;;6.50;77.80;;;;;;4999301;28;20034;-78
2023/11/25 07:36:00;;;;;;;8.98;5.85;;;6.50;77.80;;;;;;5000169;28;20027;-78
2023/11/25 07:38:26;;;;;;;7.72;5.30;;;6.50;77.40;;;;;;4967991;28;20038;-78
2023/11/25 07:40:52;;;;;;;9.77;5.75;;;6.50;77.40;;;;;;4998814;28;20034;-77
2023/11/25 07:43:18;;;;;;;8.45;4.80;;;6.50;77.30;;;;;;5000812;28;20023;-77
2023/11/25 07:45:44;;;;;;;8.77;5.72;;;6.60;77.20;;;;;;4997983;28;20117;-78
2023/11/25 07:48:10;;;;;;;7.95;5.40;;;6.60;77.20;;;;;;4982032;28;20208;-77
2023/11/25 07:50:37;;;;;;;8.32;5.45;;;6.50;76.90;;;;;;4981642;28;20034;-78
2023/11/25 07:53:04;;;;;;;9.23;5.57;;;6.60;76.90;;;;;;4983666;28;20376;-77
2023/11/25 07:55:30;;;;;;;10.25;5.40;;;6.60;76.70;;;;;;4985128;28;20030;-79
2023/11/25 07:57:58;;;;;;;8.90;5.47;;;6.60;76.70;;;;;;4988593;28;20053;-80
2023/11/25 08:00:25;;;;;;;8.05;5.60;;;6.60;76.50;;;;;;4976446;28;20050;-78
2023/11/25 08:02:55;;;;;;;9.65;5.68;;;6.70;76.40;;;;;;4979893;28;20409;-78
2023/11/25 08:05:25;;;;;;;8.52;5.10;;;6.70;76.30;;;;;;4978071;28;20045;-78
2023/11/25 08:07:55;;;;;;;9.52;5.57;;;6.70;76.20;;;;;;4979748;28;21382;-78
2023/11/25 08:10:24;;;;;;;8.65;5.20;;;6.70;76.10;;;;;;4996907;28;20030;-78
2023/11/25 08:12:50;;;;;;;8.32;5.03;;;6.70;76.10;;;;;;4980446;28;20042;-78
2023/11/25 08:15:19;;;;;;;7.78;5.40;;;6.80;76.10;;;;;;4979873;28;20042;-78
2023/11/25 08:17:46;;;;;;;6.95;5.03;;;6.80;75.90;;;;;;4984756;28;20049;-78
2023/11/25 08:20:12;;;;;;;8.07;4.95;;;6.80;76.10;;;;;;4977102;28;20535;-77
2023/11/25 08:22:38;;;;;;;6.75;4.85;;;6.80;76.00;;;;;;4980153;28;20030;-78
2023/11/25 08:25:10;;;;;;;8.02;5.05;;;6.80;76.00;;;;;;4978077;28;20150;-78
2023/11/25 08:27:37;;;;;;;9.18;5.53;;;6.80;76.00;;;;;;4962549;28;20563;-78
2023/11/25 08:30:11;;;;;;;8.15;4.80;;;6.90;75.90;;;;;;4980771;28;20359;-78
2023/11/25 08:32:41;;;;;;;7.55;5.20;;;6.90;75.80;;;;;;4983505;28;20490;-78
2023/11/25 08:35:11;;;;;;;6.53;4.60;;;6.90;75.80;;;;;;4982945;28;20057;-78
2023/11/25 08:37:40;;;;;;;7.47;5.10;;;6.90;75.60;;;;;;4984310;28;20069;-78
2023/11/25 08:40:09;;;;;;;6.40;5.18;;;6.90;75.50;;;;;;4983831;28;20570;-78
2023/11/25 08:42:35;;;;;;;7.75;5.63;;;6.90;75.40;;;;;;4982341;28;20046;-78
2023/11/25 08:45:02;;;;;;;7.80;4.68;;;6.90;75.20;;;;;;4985374;28;20141;-79
2023/11/25 08:47:32;;;;;;;8.75;5.63;;;6.90;75.10;;;;;;4983626;28;20070;-78
2023/11/25 08:49:58;;;;;;;6.97;5.22;;;6.90;75.10;;;;;;4984409;28;20084;-78
2023/11/25 08:52:26;;;;;;;8.00;5.47;;;6.90;75.10;;;;;;4997970;28;20022;-78
2023/11/25 08:54:53;;;;;;;8.20;5.45;;;7.00;75.00;;;;;;4997025;28;20056;-78
2023/11/25 08:57:20;;;;;;;6.45;5.28;;;7.00;75.00;;;;;;4991344;28;20046;-78
2023/11/25 08:59:46;;;;;;;7.32;5.63;;;7.00;74.90;;;;;;5003800;28;20485;-78
2023/11/25 09:02:14;;;;;;;6.88;4.97;;;7.00;74.80;;;;;;5004714;28;20126;-78
2023/11/25 09:04:42;;;;;;;7.88;5.55;;;7.00;74.90;;;;;;5003725;28;20034;-78
2023/11/25 09:07:14;;;;;;;9.00;5.70;;;7.00;75.00;;;;;;4970051;28;20457;-78
2023/11/25 09:09:40;;;;;;;9.25;6.10;;;7.00;75.50;;;;;;5001948;28;20030;-78
2023/11/25 09:12:08;;;;;;;6.93;5.28;;;7.00;74.80;;;;;;4998503;28;20058;-78
2023/11/25 09:14:34;;;;;;;9.68;6.00;;;7.10;74.90;;;;;;5001167;28;20085;-78
2023/11/25 09:17:01;;;;;;;8.55;6.03;;;7.10;74.70;;;;;;4992670;28;20436;-79
2023/11/25 09:19:27;;;;;;;8.50;5.72;;;7.10;74.60;;;;;;4968538;28;20064;-78
2023/11/25 09:21:53;;;;;;;9.38;6.05;;;7.10;74.60;;;;;;5002065;28;20038;-78
2023/11/25 09:24:19;;;;;;;9.48;6.45;;;7.10;74.60;;;;;;5002235;28;20544;-78
2023/11/25 09:26:47;;;;;;;8.95;6.25;;;7.10;74.50;;;;;;5000124;28;20104;-77
2023/11/25 09:29:12;;;;;;;8.48;5.70;;;7.20;74.50;;;;;;5000430;28;20077;-78
2023/11/25 09:31:38;;;;;;;9.23;5.82;;;7.20;74.40;;;;;;5002307;28;20069;-78
2023/11/25 09:34:04;;;;;;;8.48;5.55;;;7.20;74.40;;;;;;5002591;28;20040;-77
2023/11/25 09:36:30;;;;;;;8.35;5.90;;;7.20;74.20;;;;;;4999945;28;20508;-77
2023/11/25 09:38:56;;;;;;;9.85;6.45;;;7.20;73.90;;;;;;4968727;28;20034;-76
2023/11/25 09:41:23;;;;;;;8.50;6.40;;;7.20;73.80;;;;;;5000637;28;20042;-79
2023/11/25 09:43:50;;;;;;;10.90;6.50;;;7.20;73.60;;;;;;4983979;28;20034;-79
2023/11/25 09:46:16;;;;;;;8.82;5.75;;;7.20;73.40;;;;;;4999722;28;20096;-81
2023/11/25 09:48:42;;;;;;;9.75;6.57;;;7.20;73.30;;;;;;4984962;28;20042;-82
2023/11/25 09:51:13;;;;;;;10.95;6.32;;;7.20;73.00;;;;;;5000537;28;20049;-82
2023/11/25 09:53:42;;;;;;;9.23;6.07;;;7.20;73.00;;;;;;5002280;28;20034;-81
2023/11/25 09:56:11;;;;;;;11.02;7.35;;;7.30;73.00;;;;;;5003789;28;20030;-82
2023/11/25 09:58:37;;;;;;;11.10;7.03;;;7.30;73.10;;;;;;5003012;28;20096;-81
2023/11/25 10:01:05;;;;;;;10.98;7.32;;;7.30;73.20;;;;;;5001566;28;20041;-81
2023/11/25 10:03:37;;;;;;;11.68;7.68;;;7.30;73.30;;;;;;5001935;28;20049;-81
2023/11/25 10:06:03;;;;;;;11.50;7.30;;;7.30;73.40;;;;;;5003293;28;20046;-81
2023/11/25 10:08:30;;;;;;;13.57;8.50;;;7.30;73.30;;;;;;5000062;28;20096;-81
2023/11/25 10:11:08;;;;;;;12.45;7.90;;;7.30;73.10;;;;;;5002667;28;20041;-84
2023/11/25 10:13:37;;;;;;;10.73;7.40;;;7.30;73.20;;;;;;4973065;28;20121;-84
2023/11/25 10:16:03;;;;;;;12.50;6.80;;;7.40;73.30;;;;;;5002519;28;20108;-84
2023/11/25 10:18:35;;;;;;;9.65;6.53;;;7.30;73.30;;;;;;5000073;28;20034;-85
2023/11/25 10:21:05;;;;;;;10.52;7.22;;;7.30;73.30;;;;;;5001626;28;20492;-82
2023/11/25 10:23:32;;;;;;;11.52;6.75;;;7.40;73.40;;;;;;4985194;28;20038;-82
2023/11/25 10:26:03;;;;;;;13.07;6.93;;;7.40;73.30;;;;;;5001861;28;20532;-83
2023/11/25 10:28:32;;;;;;;8.85;6.15;;;7.40;73.30;;;;;;4999847;28;20052;-89
2023/11/25 10:31:00;;;;;;;8.50;5.80;;;7.40;73.60;;;;;;4939213;28;20416;-87
2023/11/25 10:33:30;;;;;;;7.70;4.88;;;7.50;75.90;;;;;;4970893;28;20030;-84
2023/11/25 10:35:57;;;;;;;8.68;5.03;;;7.60;78.00;;;;;;4966332;28;20034;-83
2023/11/25 10:38:27;;;;;;;10.73;5.35;;;7.60;79.00;;;;;;4972676;28;20033;-84
2023/11/25 10:40:59;;;;;;;9.40;5.78;;;7.70;78.40;;;;;;4977941;28;20041;-81
2023/11/25 10:43:26;;;;;;;10.23;5.63;;;7.70;77.40;;;;;;4965728;28;20030;-81
2023/11/25 10:46:05;;;;;;;9.18;5.97;;;7.70;76.50;;;;;;4965051;28;20034;-81
2023/11/25 10:48:33;;;;;;;9.93;6.38;;;7.70;75.70;;;;;;4956679;28;20073;-81
2023/11/25 10:50:59;;;;;;;8.25;5.90;;;7.70;75.10;;;;;;4979615;28;20034;-84
2023/11/25 10:53:31;;;;;;;9.07;6.45;;;7.70;74.80;;;;;;4999565;28;20052;-81
2023/11/25 10:56:00;;;;;;;9.50;6.47;;;7.70;74.70;;;;;;4968492;28;20037;-82
2023/11/25 10:58:27;;;;;;;9.15;6.53;;;7.70;74.60;;;;;;4960699;28;20049;-82
2023/11/25 11:00:55;;;;;;;10.02;6.88;;;7.70;74.40;;;;;;4950405;28;20034;-82
2023/11/25 11:03:44;;;;;;;11.65;7.10;;;7.70;74.40;;;;;;4996917;28;20042;-86
2023/11/25 11:06:15;;;;;;;10.68;7.13;;;7.70;74.20;;;;;;4963258;28;20083;-83
2023/11/25 11:08:46;;;;;;;11.15;7.45;;;7.80;74.20;;;;;;4980298;28;20068;-80
2023/11/25 11:11:21;;;;;;;12.27;7.10;;;7.70;74.10;;;;;;4979670;28;20042;-80
2023/11/25 11:14:12;;;;;;;11.95;7.20;;;7.80;74.20;;;;;;4966654;28;20040;-81
2023/11/25 11:17:14;;;;;;;9.75;6.88;;;7.80;74.10;;;;;;4981946;28;20081;-81
2023/11/25 11:19:41;;;;;;;12.68;6.72;;;7.80;74.00;;;;;;4967285;28;20045;-81
2023/11/25 11:22:11;;;;;;;12.48;7.50;;;7.80;73.80;;;;;;4984398;28;20041;-81
2023/11/25 11:25:02;;;;;;;13.75;7.22;;;7.70;73.70;;;;;;4956832;28;20111;-80
2023/11/25 11:28:01;;;;;;;11.05;6.95;;;7.80;73.70;;;;;;4943637;28;20045;-81
2023/11/25 11:31:06;;;;;;;12.25;7.03;;;7.70;73.70;;;;;;5000285;28;20672;-83
2023/11/25 11:33:33;;;;;;;11.23;7.78;;;7.80;73.80;;;;;;4969522;28;20066;-82
2023/11/25 11:35:59;;;;;;;12.43;7.78;;;7.80;73.80;;;;;;4967242;28;20397;-81
2023/11/25 11:38:30;;;;;;;12.75;7.72;;;7.70;73.80;;;;;;4972669;28;20537;-82
2023/11/25 11:41:20;;;;;;;11.63;7.15;;;7.70;73.70;;;;;;4966142;28;20081;-83
2023/11/25 11:44:06;;;;;;;10.63;7.25;;;7.70;73.80;;;;;;4942200;28;20030;-83
2023/11/25 11:46:38;;;;;;;16.27;7.15;;;7.70;73.90;;;;;;4981735;28;20065;-81
2023/11/25 11:49:10;;;;;;;12.25;7.60;;;7.80;74.10;;;;;;4964955;28;20050;-82
2023/11/25 11:51:36;;;;;;;12.80;7.90;;;7.80;74.20;;;;;;4981542;28;20068;-83
2023/11/25 11:54:21;;;;;;;11.40;7.40;;;7.80;74.20;;;;;;4965247;28;20026;-85
2023/11/25 11:57:09;;;;;;;12.18;7.22;;;7.80;74.10;;;;;;4969572;28;20034;-84
2023/11/25 12:00:00;;;;;;;10.93;7.85;;;7.80;74.00;;;;;;4971312;28;20116;-83
2023/11/25 12:02:37;;;;;;;13.57;7.68;;;7.80;74.20;;;;;;4966302;28;20038;-84
2023/11/25 12:05:04;;;;;;;11.95;6.93;;;7.80;74.00;;;;;;4966819;28;20096;-83
2023/11/25 12:07:30;;;;;;;13.18;7.78;;;7.80;74.10;;;;;;4991434;28;20519;-82
2023/11/25 12:09:57;;;;;;;11.40;7.75;;;7.80;74.10;;;;;;5001543;28;20574;-85
2023/11/25 12:12:23;;;;;;;11.77;7.32;;;7.80;74.10;;;;;;4959255;28;20082;-85
2023/11/25 12:14:50;;;;;;;13.00;8.18;;;7.80;74.00;;;;;;4984221;28;20517;-86
2023/11/25 12:17:16;;;;;;;12.73;7.32;;;7.80;74.00;;;;;;4961987;28;20037;-85
2023/11/25 12:19:43;;;;;;;12.88;8.13;;;7.80;74.00;;;;;;4954813;28;20576;-87
2023/11/25 12:22:11;;;;;;;11.68;7.38;;;7.80;74.00;;;;;;5011163;28;20065;-88
2023/11/25 12:24:40;;;;;;;13.45;7.45;;;7.80;74.60;;;;;;4991599;28;20117;-86
2023/11/25 12:27:09;;;;;;;11.00;7.40;;;7.90;74.30;;;;;;5012879;28;20041;-89
2023/11/25 12:29:35;;;;;;;14.15;8.57;;;7.90;73.90;;;;;;4979422;28;20033;-88
2023/11/25 12:32:02;;;;;;;12.40;9.02;;;7.90;73.20;;;;;;5006077;28;20042;-86
2023/11/25 12:34:29;;;;;;;15.55;9.55;;;7.90;72.40;;;;;;5011367;28;20034;-85
2023/11/25 12:36:59;;;;;;;14.73;9.45;;;7.90;71.80;;;;;;5012788;28;20034;-85
2023/11/25 12:39:26;;;;;;;15.48;9.25;;;7.90;71.80;;;;;;4995848;28;20539;-87
2023/11/25 12:41:53;;;;;;;13.65;9.75;;;7.90;71.60;;;;;;4961173;28;20065;-82
2023/11/25 12:44:20;;;;;;;15.88;10.02;;;7.90;71.80;;;;;;4995288;28;20034;-85
2023/11/25 12:47:08;;;;;;;17.20;10.82;;;7.90;71.10;;;;;;5011654;28;20026;-83
2023/11/25 12:49:35;;;;;;;15.90;10.23;;;7.90;71.00;;;;;;4984680;28;20046;-85
2023/11/25 12:52:01;;;;;;;19.20;10.30;;;7.90;70.70;;;;;;5001192;28;20030;-87
2023/11/25 12:54:44;;;;;;;16.05;10.00;;;7.90;70.60;;;;;;4970560;28;20038;-88
2023/11/25 12:57:11;;;;;;;15.88;10.30;;;7.90;71.10;;;;;;4999010;28;20053;-88
2023/11/25 12:59:38;;;;;;;15.55;9.98;;;7.90;70.50;;;;;;4981491;28;20059;-84